Time;durP1;ratioP1;P1;durP2;ratioP2;P2;SDS_P1;SDS_P2;PMS_P1;PMS_P2;Temp;Humidity;BMP_temperature;BMP_pressure;BME280_temperature;BME280_humidity;BME280_pressure;Samples;Min_cycle;Max_cycle;Signal;HPM_P1;HPM_P2
2022/06/18 00:01:58;;;;;;;13.80;10.68;;;;;;;20.29;68.55;99447.22;4964009;28;20022;-95
2022/06/18 00:04:24;;;;;;;16.73;10.15;;;;;;;20.07;68.97;99424.50;4967136;28;20507;-94
2022/06/18 00:06:54;;;;;;;12.02;10.82;;;;;;;20.21;68.78;99445.31;4967962;28;20018;-94
2022/06/18 00:09:22;;;;;;;18.73;11.20;;;;;;;20.15;68.73;99433.78;4968355;28;20033;-95
2022/06/18 00:14:39;;;;;;;13.80;11.80;;;;;;;20.21;68.55;99440.66;4989084;28;20407;-94
2022/06/18 00:17:12;;;;;;;10.93;9.77;;;;;;;20.34;67.21;99436.88;4966635;28;20022;-95
2022/06/18 00:19:37;;;;;;;12.55;11.15;;;;;;;20.34;67.62;99441.56;4967462;28;20029;-94
2022/06/18 00:22:03;;;;;;;14.02;10.80;;;;;;;20.28;67.92;99431.94;4966753;28;20021;-94
2022/06/18 00:24:28;;;;;;;12.07;10.43;;;;;;;20.18;68.19;99428.47;4966946;28;20030;-95
2022/06/18 00:26:54;;;;;;;13.13;11.30;;;;;;;20.14;68.40;99443.91;4966640;28;20032;-95
2022/06/18 00:29:19;;;;;;;13.40;11.10;;;;;;;20.12;68.40;99437.19;4966564;28;20030;-94
2022/06/18 00:31:45;;;;;;;14.18;10.23;;;;;;;20.32;68.62;99469.22;4967363;28;20037;-93
2022/06/18 00:34:11;;;;;;;13.27;10.05;;;;;;;20.29;67.96;99447.22;4966681;28;20048;-94
2022/06/18 00:36:37;;;;;;;18.77;9.63;;;;;;;20.34;67.17;99453.28;4967117;28;20034;-94
2022/06/18 00:39:04;;;;;;;15.07;9.40;;;;;;;20.26;66.90;99454.16;4967827;28;20036;-93
2022/06/18 00:41:31;;;;;;;10.10;8.30;;;;;;;20.33;66.65;99457.16;4966994;28;20133;-92
2022/06/18 00:44:06;;;;;;;14.45;9.05;;;;;;;20.25;65.90;99449.00;4967123;28;20025;-94
2022/06/18 00:46:49;;;;;;;9.93;8.13;;;;;;;20.36;65.16;99445.56;4967237;28;20125;-93
2022/06/18 00:49:49;;;;;;;10.32;8.40;;;;;;;20.27;65.28;99463.94;4967505;28;20034;-94
2022/06/18 00:52:39;;;;;;;11.65;9.50;;;;;;;20.44;64.98;99481.38;4983290;28;20046;-93
2022/06/18 00:55:16;;;;;;;9.25;7.68;;;;;;;20.32;65.21;99452.81;4982599;28;20036;-94
2022/06/18 00:57:57;;;;;;;12.98;8.25;;;;;;;20.34;64.59;99469.69;4966555;28;20034;-94
2022/06/18 01:00:29;;;;;;;9.50;7.97;;;;;;;20.44;63.94;99470.44;4967199;28;20026;-94
2022/06/18 01:02:54;;;;;;;12.57;8.43;;;;;;;20.53;64.10;99490.34;4966890;28;20056;-93
2022/06/18 01:05:25;;;;;;;9.10;7.65;;;;;;;20.39;64.21;99472.22;4966165;28;20030;-94
2022/06/18 01:08:03;;;;;;;12.80;7.55;;;;;;;20.42;63.49;99480.91;4967046;28;20033;-94
2022/06/18 01:10:32;;;;;;;8.57;7.38;;;;;;;20.41;63.77;99482.06;4966188;28;20408;-94
2022/06/18 01:12:58;;;;;;;11.75;7.93;;;;;;;20.46;63.52;99485.41;4966510;28;20472;-93
2022/06/18 01:15:24;;;;;;;8.60;7.43;;;;;;;20.35;62.51;99473.22;4966186;28;20076;-93
2022/06/18 01:17:51;;;;;;;11.82;7.28;;;;;;;20.55;61.90;99479.88;4965370;28;20040;-94
2022/06/18 01:20:17;;;;;;;8.55;7.43;;;;;;;20.58;63.45;99492.91;4982353;28;20030;-94
2022/06/18 01:22:57;;;;;;;10.05;6.63;;;;;;;20.72;62.03;99503.59;4966341;28;20510;-93
2022/06/18 01:25:24;;;;;;;9.85;5.40;;;;;;;20.61;60.95;99486.78;4981737;28;20026;-95
2022/06/18 01:27:49;;;;;;;7.00;5.05;;;;;;;20.49;60.59;99486.66;4965622;28;20022;-93
2022/06/18 01:30:17;;;;;;;13.43;5.10;;;;;;;20.56;60.78;99493.19;4965258;28;20475;-94
2022/06/18 01:32:43;;;;;;;8.70;4.95;;;;;;;20.41;61.04;99466.44;4966171;28;20026;-93
2022/06/18 01:35:09;;;;;;;8.07;5.30;;;;;;;20.50;61.07;99474.56;4966297;28;20514;-94
2022/06/18 01:37:35;;;;;;;6.60;4.95;;;;;;;20.52;61.57;99483.25;4966206;28;20026;-93
2022/06/18 01:40:01;;;;;;;8.32;5.82;;;;;;;20.41;61.91;99468.38;4981621;28;20025;-94
2022/06/18 01:42:38;;;;;;;6.47;5.10;;;;;;;20.25;62.13;99457.22;4965776;28;20132;-94
2022/06/18 01:45:08;;;;;;;7.53;4.85;;;;;;;20.33;62.71;99470.81;4967238;28;20450;-93
2022/06/18 01:47:42;;;;;;;9.00;4.95;;;;;;;20.30;63.13;99473.44;4966526;28;20029;-93
2022/06/18 01:50:15;;;;;;;6.55;5.43;;;;;;;20.23;63.38;99470.41;4982257;28;20029;-94
2022/06/18 01:52:45;;;;;;;8.02;5.75;;;;;;;20.22;64.20;99480.56;4981768;28;20037;-94
2022/06/18 01:55:32;;;;;;;9.57;5.78;;;;;;;20.17;64.79;99481.53;4965735;28;20484;-94
2022/06/18 01:58:00;;;;;;;7.93;5.22;;;;;;;20.22;65.29;99505.16;4967323;28;20029;-94
2022/06/18 02:00:27;;;;;;;7.38;5.72;;;;;;;20.14;65.21;99484.13;4966040;28;20061;-94
2022/06/18 02:02:52;;;;;;;9.18;5.60;;;;;;;20.18;65.72;99494.06;4965526;28;20054;-93
2022/06/18 02:05:19;;;;;;;9.63;6.07;;;;;;;20.25;65.93;99501.75;4965358;28;20029;-94
2022/06/18 02:07:44;;;;;;;9.38;5.95;;;;;;;20.33;65.31;99511.84;4964808;28;20029;-94
2022/06/18 02:10:30;;;;;;;7.90;6.07;;;;;;;20.31;65.71;99529.72;4965102;28;20507;-94
2022/06/18 02:13:03;;;;;;;8.63;6.20;;;;;;;20.31;66.29;99518.78;4981262;28;20116;-93
2022/06/18 02:15:33;;;;;;;8.25;6.50;;;;;;;20.05;67.14;99497.84;4983243;28;20057;-94
2022/06/18 02:18:03;;;;;;;7.63;6.55;;;;;;;20.03;66.92;99513.78;4964966;28;20030;-93
2022/06/18 02:20:29;;;;;;;13.20;6.78;;;;;;;19.96;67.88;99532.59;4964756;28;20029;-94
2022/06/18 02:22:56;;;;;;;10.77;6.80;;;;;;;19.83;68.19;99517.22;4964461;28;20034;-94
2022/06/18 02:25:26;;;;;;;12.23;6.60;;;;;;;19.95;67.96;99540.00;4963944;28;20029;-94
2022/06/18 02:27:56;;;;;;;8.70;6.90;;;;;;;19.93;68.14;99534.06;4964453;28;20510;-94
2022/06/18 02:30:23;;;;;;;10.70;7.35;;;;;;;19.96;68.56;99533.41;4964623;28;20026;-93
2022/06/18 02:33:28;;;;;;;10.32;7.20;;;;;;;19.95;68.70;99540.00;4980695;28;20029;-94
2022/06/18 02:35:53;;;;;;;10.30;7.18;;;;;;;19.97;69.03;99545.94;4983604;28;20030;-94
2022/06/18 02:38:20;;;;;;;8.85;7.30;;;;;;;20.00;69.05;99555.41;4980992;28;20551;-93
2022/06/18 02:40:46;;;;;;;9.45;7.50;;;;;;;20.05;68.21;99551.72;4964138;28;20033;-94
2022/06/18 02:43:11;;;;;;;15.82;8.32;;;;;;;19.95;69.43;99556.41;4964088;28;20637;-94
2022/06/18 02:45:37;;;;;;;8.70;7.60;;;;;;;19.76;69.91;99550.53;4964282;28;20033;-94
2022/06/18 02:48:03;;;;;;;11.07;7.50;;;;;;;19.71;69.84;99534.28;4964665;28;20026;-94
2022/06/18 02:50:31;;;;;;;10.10;7.82;;;;;;;19.77;69.76;99538.44;4964127;28;20471;-94
2022/06/18 02:53:00;;;;;;;9.52;7.45;;;;;;;19.68;69.93;99543.91;4964979;28;20385;-94
2022/06/18 02:55:42;;;;;;;8.85;7.43;;;;;;;19.91;69.61;99568.31;4965695;28;20034;-93
2022/06/18 02:58:10;;;;;;;12.35;6.63;;;;;;;20.04;69.35;99561.84;4980971;28;20108;-93
2022/06/18 03:00:38;;;;;;;7.72;6.60;;;;;;;20.06;69.42;99553.31;4980714;28;20030;-94
2022/06/18 03:03:08;;;;;;;8.93;7.10;;;;;;;19.84;71.32;99540.69;4964336;28;20058;-94
2022/06/18 03:05:34;;;;;;;12.60;7.88;;;;;;;19.91;71.75;99571.06;4964090;28;20025;-94
2022/06/18 03:07:59;;;;;;;10.02;7.20;;;;;;;19.75;70.83;99544.22;4980461;28;20026;-94
2022/06/18 03:13:09;;;;;;;9.70;7.22;;;;;;;19.90;71.60;99572.16;4985364;28;20113;-93
2022/06/18 03:15:35;;;;;;;9.85;7.85;;;;;;;19.74;72.08;99559.03;4980146;28;20061;-93
2022/06/18 03:18:00;;;;;;;9.70;7.78;;;;;;;19.84;71.62;99570.72;4964294;28;20064;-94
2022/06/18 03:20:33;;;;;;;10.73;7.78;;;;;;;19.98;72.07;99599.50;4980561;28;20037;-94
2022/06/18 03:22:59;;;;;;;8.02;7.03;;;;;;;19.94;69.70;99586.78;4964693;28;20033;-93
2022/06/18 03:25:24;;;;;;;9.45;7.40;;;;;;;19.95;69.83;99585.66;4964339;28;20034;-93
2022/06/18 03:27:50;;;;;;;8.40;7.57;;;;;;;19.68;71.36;99575.91;4963784;28;20506;-94
2022/06/18 03:30:16;;;;;;;8.52;7.70;;;;;;;19.59;71.62;99595.03;4964444;28;20041;-93
2022/06/18 03:32:41;;;;;;;10.25;7.40;;;;;;;19.69;70.67;99610.28;4964421;28;20065;-93
2022/06/18 03:35:07;;;;;;;11.00;7.65;;;;;;;19.64;70.95;99592.13;4963559;28;20032;-93
2022/06/18 03:37:33;;;;;;;8.63;7.38;;;;;;;19.67;71.03;99586.03;4964323;28;20120;-94
2022/06/18 03:39:58;;;;;;;9.57;7.72;;;;;;;19.61;71.33;99589.22;4967541;28;20022;-94
2022/06/18 03:42:24;;;;;;;8.85;7.95;;;;;;;19.54;71.89;99597.91;4967843;28;20022;-94
2022/06/18 03:44:49;;;;;;;13.27;8.95;;;;;;;19.58;71.34;99590.69;4967314;28;20025;-94
2022/06/18 03:47:15;;;;;;;10.73;8.13;;;;;;;19.56;71.72;99599.19;4967057;28;20014;-94
2022/06/18 03:49:40;;;;;;;10.82;8.48;;;;;;;19.57;72.16;99592.63;4967078;28;20026;-94
2022/06/18 03:52:06;;;;;;;14.13;9.20;;;;;;;19.47;71.33;99590.22;4983189;28;20030;-94
2022/06/18 03:54:32;;;;;;;11.48;8.52;;;;;;;19.47;71.80;99587.50;4967777;28;20030;-93
2022/06/18 03:56:58;;;;;;;11.30;8.95;;;;;;;19.40;72.18;99570.78;4983089;28;20032;-93
2022/06/18 03:59:23;;;;;;;12.55;9.02;;;;;;;19.51;73.00;99606.78;4967216;28;20037;-93
2022/06/18 04:01:49;;;;;;;10.00;8.40;;;;;;;19.42;72.56;99592.31;4967589;28;20427;-93
2022/06/18 04:04:14;;;;;;;12.15;8.70;;;;;;;19.47;73.11;99611.28;4966944;28;20100;-94
2022/06/18 04:06:40;;;;;;;11.85;9.32;;;;;;;19.38;72.99;99586.69;4966738;28;20025;-94
2022/06/18 04:09:06;;;;;;;11.57;8.40;;;;;;;19.50;72.17;99611.41;4967039;28;20029;-93
2022/06/18 04:11:31;;;;;;;10.93;8.65;;;;;;;19.44;73.52;99603.72;4967375;28;20034;-94
2022/06/18 04:13:57;;;;;;;10.18;8.70;;;;;;;19.49;72.92;99601.63;4966738;28;20029;-94
2022/06/18 04:16:23;;;;;;;12.90;8.85;;;;;;;19.27;73.91;99575.28;4966577;28;20034;-94
2022/06/18 04:18:50;;;;;;;14.40;9.57;;;;;;;19.15;75.54;99575.94;4967077;28;20476;-94
2022/06/18 04:21:15;;;;;;;12.32;10.15;;;;;;;19.16;76.47;99580.25;4982995;28;20410;-94
2022/06/18 04:23:42;;;;;;;14.32;10.98;;;;;;;19.18;77.36;99591.66;4967102;28;20018;-94
2022/06/18 04:26:08;;;;;;;12.43;11.13;;;;;;;19.20;77.22;99593.28;4982608;28;20030;-92
2022/06/18 04:28:33;;;;;;;12.85;10.63;;;;;;;19.28;76.98;99592.47;4981143;28;20552;-93
2022/06/18 04:30:59;;;;;;;11.88;9.68;;;;;;;19.42;75.83;99593.09;4965703;28;20104;-92
2022/06/18 04:33:26;;;;;;;13.25;9.88;;;;;;;19.40;76.22;99589.88;4965780;28;20029;-93
2022/06/18 04:35:53;;;;;;;14.90;9.85;;;;;;;19.49;75.21;99601.63;4982003;28;20100;-92
2022/06/18 04:38:20;;;;;;;10.30;9.18;;;;;;;19.57;74.42;99602.75;4998037;28;20029;-93
2022/06/18 04:40:47;;;;;;;12.52;9.98;;;;;;;19.46;76.31;99618.63;4965882;28;20034;-93
2022/06/18 04:43:12;;;;;;;13.68;10.13;;;;;;;19.41;75.63;99607.09;4966219;28;20033;-92
2022/06/18 04:45:38;;;;;;;12.30;9.75;;;;;;;19.28;75.59;99601.47;4965479;28;20030;-94
2022/06/18 04:48:04;;;;;;;13.18;10.02;;;;;;;19.35;75.82;99607.25;4965520;28;20034;-93
2022/06/18 04:50:32;;;;;;;10.90;9.05;;;;;;;19.38;75.35;99613.97;4965761;28;20045;-93
2022/06/18 04:52:58;;;;;;;11.32;9.27;;;;;;;19.34;74.81;99618.47;4965629;28;20507;-94
2022/06/18 04:55:25;;;;;;;10.25;8.68;;;;;;;19.31;73.89;99625.38;4981575;28;20076;-95
2022/06/18 04:57:51;;;;;;;11.90;8.70;;;;;;;19.16;74.19;99604.03;4966080;28;20033;-94
2022/06/18 05:00:17;;;;;;;13.80;8.10;;;;;;;19.37;73.05;99631.50;4981808;28;20030;-93
2022/06/18 05:02:43;;;;;;;11.55;7.82;;;;;;;19.37;73.63;99634.22;4981410;28;20037;-94
2022/06/18 05:05:17;;;;;;;10.07;7.82;;;;;;;19.45;73.02;99633.44;4981576;28;20022;-93
2022/06/18 05:07:42;;;;;;;11.60;8.63;;;;;;;19.33;74.24;99647.72;4965810;28;20026;-93
2022/06/18 05:10:10;;;;;;;9.23;7.40;;;;;;;19.37;73.59;99639.69;4965302;28;20033;-92
2022/06/18 05:12:37;;;;;;;11.63;8.85;;;;;;;19.48;75.08;99657.34;4982219;28;20040;-92
2022/06/18 05:15:05;;;;;;;10.48;7.35;;;;;;;19.44;72.70;99666.53;4997884;28;20026;-94
2022/06/18 05:17:32;;;;;;;8.93;7.15;;;;;;;19.48;72.27;99673.75;4965582;28;20030;-93
2022/06/18 05:19:58;;;;;;;9.18;7.70;;;;;;;19.46;72.89;99680.66;4965932;28;20026;-94
2022/06/18 05:22:23;;;;;;;9.70;7.93;;;;;;;19.43;72.85;99673.91;4965720;28;20049;-90
2022/06/18 05:24:50;;;;;;;9.98;7.38;;;;;;;19.37;72.37;99673.25;4982803;28;20032;-91
2022/06/18 05:27:22;;;;;;;10.38;8.00;;;;;;;19.50;72.16;99682.41;4981880;28;20116;-93
2022/06/18 05:29:47;;;;;;;10.25;8.18;;;;;;;19.49;71.77;99678.09;4981302;28;20116;-91
2022/06/18 05:32:15;;;;;;;10.65;7.72;;;;;;;19.53;72.28;99705.59;4964797;28;20026;-90
2022/06/18 05:34:41;;;;;;;9.75;7.60;;;;;;;19.38;70.82;99684.97;4980736;28;20029;-90
2022/06/18 05:37:14;;;;;;;8.77;7.88;;;;;;;19.47;72.12;99693.22;4996703;28;20029;-91
2022/06/18 05:39:39;;;;;;;9.98;7.30;;;;;;;19.33;70.27;99690.59;4964303;28;20034;-90
2022/06/18 05:42:05;;;;;;;8.02;7.13;;;;;;;19.35;70.35;99696.56;4964552;28;20034;-90
2022/06/18 05:44:32;;;;;;;11.32;8.00;;;;;;;19.20;71.81;99691.56;4996956;28;20377;-92
2022/06/18 05:46:57;;;;;;;10.50;7.05;;;;;;;19.17;71.40;99691.06;4997413;28;20080;-90
2022/06/18 05:49:23;;;;;;;9.07;8.02;;;;;;;19.29;71.59;99706.03;4964536;28;20060;-91
2022/06/18 05:51:48;;;;;;;12.38;7.32;;;;;;;19.26;70.54;99693.00;4980720;28;20087;-91
2022/06/18 05:54:15;;;;;;;11.27;8.35;;;;;;;19.31;72.43;99706.50;4964621;28;20034;-90
2022/06/18 05:56:41;;;;;;;9.13;7.38;;;;;;;19.28;70.76;99698.94;4981180;28;20028;-92
2022/06/18 05:59:12;;;;;;;12.82;8.27;;;;;;;19.29;71.70;99712.28;4964404;28;20064;-91
2022/06/18 06:01:38;;;;;;;8.40;6.10;;;;;;;19.31;70.14;99710.03;4980578;28;20484;-92
2022/06/18 06:04:05;;;;;;;8.75;6.63;;;;;;;19.38;70.15;99710.38;4996702;28;20336;-92
2022/06/18 06:06:31;;;;;;;8.50;6.30;;;;;;;19.56;68.58;99718.59;4997052;28;20559;-93
2022/06/18 06:08:57;;;;;;;10.13;7.15;;;;;;;19.51;69.82;99700.44;4997107;28;20064;-94
2022/06/18 06:11:29;;;;;;;8.15;6.60;;;;;;;19.59;69.94;99702.38;4996648;28;20026;-93
2022/06/18 06:13:56;;;;;;;8.90;6.80;;;;;;;19.59;69.46;99710.56;4966215;28;20053;-94
2022/06/18 06:16:21;;;;;;;9.60;6.70;;;;;;;19.71;68.83;99715.41;4995655;28;20448;-93
2022/06/18 06:18:48;;;;;;;8.95;7.47;;;;;;;19.79;69.21;99705.59;4964698;28;20162;-93
2022/06/18 06:21:15;;;;;;;8.73;6.28;;;;;;;19.77;67.48;99686.00;4965335;28;20026;-94
2022/06/18 06:23:40;;;;;;;9.80;6.38;;;;;;;19.88;68.58;99709.16;4979924;28;20068;-94
2022/06/18 06:26:18;;;;;;;10.57;7.28;;;;;;;19.91;67.19;99715.91;4964010;28;20548;-93
2022/06/18 06:28:43;;;;;;;8.13;6.55;;;;;;;19.91;67.42;99708.50;4980229;28;20033;-93
2022/06/18 06:31:09;;;;;;;9.38;6.45;;;;;;;19.94;68.36;99717.97;4963836;28;20396;-95
2022/06/18 06:33:35;;;;;;;9.30;6.70;;;;;;;20.01;67.60;99728.44;4964070;28;20472;-93
2022/06/18 06:36:03;;;;;;;10.13;5.82;;;;;;;20.06;66.86;99723.59;4979115;28;20048;-95
2022/06/18 06:38:29;;;;;;;10.70;5.53;;;;;;;20.13;66.44;99720.38;4980204;28;20033;-92
2022/06/18 06:40:58;;;;;;;6.63;5.80;;;;;;;20.25;65.91;99744.31;4996208;28;20022;-93
2022/06/18 06:43:23;;;;;;;9.80;5.85;;;;;;;19.99;66.35;99723.28;4995678;28;20038;-94
2022/06/18 06:45:49;;;;;;;9.05;6.13;;;;;;;19.93;65.61;99739.03;4963764;28;20033;-94
2022/06/18 06:48:14;;;;;;;10.30;6.00;;;;;;;20.05;66.68;99745.81;4963418;28;20080;-93
2022/06/18 06:50:41;;;;;;;8.30;6.03;;;;;;;19.75;67.00;99724.56;4963978;28;20041;-92
2022/06/18 06:53:06;;;;;;;7.07;5.93;;;;;;;20.05;65.36;99743.06;4996940;28;20022;-93
2022/06/18 06:58:22;;;;;;;8.40;5.78;;;;;;;19.80;66.69;99731.81;4985629;28;20121;-93
2022/06/18 07:00:54;;;;;;;12.88;6.05;;;;;;;19.81;66.27;99733.41;4979648;28;20026;-94
2022/06/18 07:03:25;;;;;;;7.32;4.53;;;;;;;19.89;62.89;99713.47;4964369;28;20046;-94
2022/06/18 07:05:56;;;;;;;9.27;5.18;;;;;;;19.74;65.03;99727.63;4981783;28;20025;-96
2022/06/18 07:08:21;;;;;;;9.07;4.60;;;;;;;19.72;64.80;99743.53;5015148;28;20029;-94
2022/06/18 07:10:49;;;;;;;7.15;4.70;;;;;;;19.71;65.13;99741.94;4963837;28;20022;-93
2022/06/18 07:13:16;;;;;;;7.93;4.70;;;;;;;19.69;64.95;99744.16;4969253;28;20559;-92
2022/06/18 07:15:42;;;;;;;6.63;4.68;;;;;;;19.81;64.79;99740.81;5000721;28;20503;-93
2022/06/18 07:18:15;;;;;;;8.95;4.50;;;;;;;19.89;64.40;99756.41;4967741;28;20026;-93
2022/06/18 07:20:42;;;;;;;8.48;4.55;;;;;;;19.95;64.15;99755.94;4984764;28;20487;-92
2022/06/18 07:23:09;;;;;;;5.18;3.72;;;;;;;19.99;63.09;99751.41;5006014;28;20033;-94
2022/06/18 07:25:38;;;;;;;5.10;3.67;;;;;;;20.13;62.46;99748.53;4984861;28;20407;-96
2022/06/18 07:28:03;;;;;;;4.75;4.10;;;;;;;20.09;63.09;99733.91;4985169;28;20021;-93
2022/06/18 07:30:30;;;;;;;6.82;4.13;;;;;;;19.98;61.93;99730.69;4967315;28;20030;-94
2022/06/18 07:32:55;;;;;;;7.38;4.13;;;;;;;20.23;62.97;99758.31;4983297;28;20037;-93
2022/06/18 07:35:29;;;;;;;5.93;3.80;;;;;;;20.38;61.31;99743.34;4967570;28;20038;-95
2022/06/18 07:37:56;;;;;;;3.70;3.28;;;;;;;20.25;61.32;99756.06;4984841;28;20112;-93
2022/06/18 07:40:22;;;;;;;5.30;3.25;;;;;;;20.35;61.56;99758.47;4968676;28;20030;-93
2022/06/18 07:42:48;;;;;;;5.82;3.97;;;;;;;20.24;62.31;99756.41;4968770;28;20030;-93
2022/06/18 07:45:21;;;;;;;13.60;3.70;;;;;;;20.43;60.55;99742.38;4983889;28;20117;-94
2022/06/18 07:47:47;;;;;;;6.68;3.60;;;;;;;20.59;60.67;99751.69;4983756;28;20425;-92
2022/06/18 07:50:13;;;;;;;5.53;3.47;;;;;;;20.70;59.44;99750.19;4967535;28;20041;-93
2022/06/18 07:52:39;;;;;;;4.68;3.50;;;;;;;21.05;58.89;99752.81;4967917;28;20121;-92
2022/06/18 07:55:06;;;;;;;4.22;3.25;;;;;;;21.10;59.27;99746.34;4967710;28;20029;-92
2022/06/18 07:57:34;;;;;;;7.10;3.50;;;;;;;21.01;57.61;99749.13;4984174;28;20025;-95
2022/06/18 08:00:04;;;;;;;6.07;3.58;;;;;;;21.09;57.26;99737.31;4984464;28;20400;-94
2022/06/18 08:02:29;;;;;;;6.03;3.58;;;;;;;21.01;57.59;99746.38;4968239;28;20132;-92
2022/06/18 08:04:55;;;;;;;5.10;3.47;;;;;;;21.12;58.67;99765.97;4964073;28;20038;-93
2022/06/18 08:07:21;;;;;;;5.82;3.90;;;;;;;21.12;59.33;99760.50;4966535;28;20026;-93
2022/06/18 08:09:47;;;;;;;5.68;3.58;;;;;;;20.93;57.70;99750.75;4965138;28;20026;-91
2022/06/18 08:12:13;;;;;;;9.25;3.88;;;;;;;21.03;58.41;99774.25;4979739;28;20121;-93
2022/06/18 08:14:40;;;;;;;5.90;3.58;;;;;;;20.92;57.50;99771.06;4980943;28;20069;-93
2022/06/18 08:17:09;;;;;;;6.30;3.75;;;;;;;20.80;58.24;99743.56;4964261;28;20342;-92
2022/06/18 08:19:35;;;;;;;5.50;3.45;;;;;;;20.86;57.40;99766.91;4995334;28;20022;-92
2022/06/18 08:22:01;;;;;;;8.40;3.63;;;;;;;20.94;57.79;99784.44;4963002;28;20112;-92
2022/06/18 08:24:29;;;;;;;10.82;4.00;;;;;;;20.78;57.65;99770.47;4963543;28;20525;-92
2022/06/18 08:26:55;;;;;;;5.93;4.03;;;;;;;20.85;56.84;99775.44;4979871;28;20094;-92
2022/06/18 08:29:23;;;;;;;8.98;4.80;;;;;;;20.78;57.38;99765.00;4978914;28;20385;-93
2022/06/18 08:31:49;;;;;;;6.00;3.70;;;;;;;21.09;56.74;99761.19;4964141;28;20026;-92
2022/06/18 08:34:15;;;;;;;5.90;3.90;;;;;;;21.25;56.94;99766.88;4963131;28;20026;-93
2022/06/18 08:36:41;;;;;;;6.50;3.80;;;;;;;21.29;55.15;99782.34;4995254;28;20173;-92
2022/06/18 08:39:06;;;;;;;8.05;3.50;;;;;;;21.35;54.20;99767.31;4962409;28;20030;-92
2022/06/18 08:42:13;;;;;;;7.07;3.75;;;;;;;21.33;55.20;99768.75;4979174;28;20555;-92
2022/06/18 08:45:10;;;;;;;5.03;3.10;;;;;;;21.44;53.78;99761.03;4953523;28;20030;-93
2022/06/18 08:47:53;;;;;;;5.38;3.08;;;;;;;21.73;54.12;99782.09;4981287;28;20042;-92
2022/06/18 08:50:48;;;;;;;7.95;3.22;;;;;;;21.91;53.56;99785.50;4995476;28;20026;-92
2022/06/18 08:53:35;;;;;;;9.18;4.10;;;;;;;22.03;53.40;99787.53;4974432;28;20058;-92
2022/06/18 08:56:49;;;;;;;8.05;3.40;;;;;;;21.99;53.43;99793.66;4979199;28;20473;-93
2022/06/18 08:59:35;;;;;;;4.53;3.00;;;;;;;22.18;52.34;99790.47;4990210;28;20049;-93
2022/06/18 09:02:25;;;;;;;8.55;3.70;;;;;;;21.99;52.08;99781.91;4995494;28;20026;-92
2022/06/18 09:05:03;;;;;;;7.55;3.78;;;;;;;22.27;51.72;99798.66;5015397;28;20101;-92
2022/06/18 09:07:51;;;;;;;5.43;3.50;;;;;;;22.36;52.08;99793.88;4998525;28;20025;-93
2022/06/18 09:10:26;;;;;;;6.35;2.70;;;;;;;22.47;51.24;99788.75;4985628;28;20030;-93
2022/06/18 09:13:01;;;;;;;3.70;2.60;;;;;;;22.45;51.22;99771.81;4998900;28;20030;-92
2022/06/18 09:15:58;;;;;;;9.30;3.10;;;;;;;22.54;52.02;99782.75;4983164;28;20021;-93
2022/06/18 09:18:38;;;;;;;8.70;3.67;;;;;;;22.54;51.22;99772.56;4994939;28;20045;-92
2022/06/18 09:21:08;;;;;;;4.93;2.87;;;;;;;22.69;50.53;99773.03;4967007;28;20030;-93
2022/06/18 09:23:42;;;;;;;4.78;2.55;;;;;;;22.80;49.95;99769.50;4966051;28;20384;-93
2022/06/18 09:26:12;;;;;;;5.15;2.55;;;;;;;22.68;49.96;99757.69;4966192;28;20026;-92
2022/06/18 09:28:41;;;;;;;5.68;2.97;;;;;;;22.90;50.03;99765.53;4981803;28;20127;-93
2022/06/18 09:31:16;;;;;;;3.00;2.70;;;;;;;22.95;50.15;99759.00;4982866;28;20018;-93
2022/06/18 09:34:10;;;;;;;3.33;2.55;;;;;;;22.88;50.77;99740.34;4966072;28;20036;-93
2022/06/18 09:36:37;;;;;;;4.68;2.50;;;;;;;22.99;49.83;99749.75;4999267;28;20033;-94
2022/06/18 09:39:08;;;;;;;5.03;2.20;;;;;;;23.18;46.62;99762.94;4966278;28;20030;-94
2022/06/18 09:41:48;;;;;;;4.13;3.42;;;;;;;23.13;48.07;99749.41;4965750;28;20084;-94
2022/06/18 09:44:24;;;;;;;4.13;2.40;;;;;;;23.42;47.27;99749.53;4982443;28;20423;-91
2022/06/18 09:47:20;;;;;;;5.38;2.75;;;;;;;23.73;47.22;99774.44;4966324;28;20057;-91
2022/06/18 09:49:47;;;;;;;6.10;2.63;;;;;;;23.65;46.14;99756.13;4977197;28;20116;-92
2022/06/18 09:52:36;;;;;;;6.50;3.20;;;;;;;23.77;46.13;99769.88;4980932;28;20079;-90
2022/06/18 09:55:48;;;;;;;4.07;3.55;;;;;;;23.86;45.67;99755.19;4996789;28;20112;-91
2022/06/18 09:58:42;;;;;;;6.07;3.10;;;;;;;23.93;45.19;99736.16;4959938;28;20049;-91
2022/06/18 10:01:09;;;;;;;6.60;2.38;;;;;;;23.90;44.15;99728.59;4974235;28;20029;-93
2022/06/18 10:09:09;;;;;;;5.50;2.50;;;;;;;24.40;44.14;99729.97;5000005;28;20044;-91
2022/06/18 10:11:35;;;;;;;3.20;2.40;;;;;;;24.44;43.85;99730.84;4980507;28;20026;-92
2022/06/18 10:14:13;;;;;;;2.92;2.30;;;;;;;24.35;43.35;99742.03;4964148;28;20036;-91
2022/06/18 10:17:12;;;;;;;6.82;2.90;;;;;;;24.26;43.06;99744.16;4965483;28;20114;-91
2022/06/18 10:19:53;;;;;;;13.95;7.45;;;;;;;24.25;42.60;99742.53;4925298;29;20050;-92
2022/06/18 10:22:33;;;;;;;2.40;2.00;;;;;;;24.27;42.47;99758.72;4937833;29;20170;-92
2022/06/18 10:25:14;;;;;;;5.00;2.08;;;;;;;24.16;42.75;99750.16;4938153;29;20035;-90
2022/06/18 10:27:57;;;;;;;4.35;2.08;;;;;;;23.80;43.72;99724.38;4923068;29;20024;-92
2022/06/18 10:30:49;;;;;;;3.40;2.28;;;;;;;23.83;44.72;99748.44;4938594;29;20106;-93
2022/06/18 10:33:29;;;;;;;3.10;2.20;;;;;;;24.04;44.52;99745.50;4937897;29;20089;-92
2022/06/18 10:36:15;;;;;;;3.83;2.83;;;;;;;24.05;45.28;99738.88;4937746;29;20053;-93
2022/06/18 10:39:22;;;;;;;3.95;2.25;;;;;;;24.21;44.86;99725.94;4922371;29;20031;-90
2022/06/18 10:41:53;;;;;;;3.80;2.10;;;;;;;24.36;44.19;99749.16;4936705;29;20039;-91
2022/06/18 10:44:28;;;;;;;3.83;2.33;;;;;;;24.44;44.36;99741.88;4940662;29;20070;-94
2022/06/18 10:47:08;;;;;;;3.00;2.47;;;;;;;24.46;44.80;99723.03;4946647;29;20445;-93
2022/06/18 10:49:43;;;;;;;4.53;2.30;;;;;;;24.46;44.45;99736.00;4930331;28;20051;-94
2022/06/18 10:52:22;;;;;;;6.28;2.25;;;;;;;24.36;44.60;99727.13;5002125;28;20034;-93
2022/06/18 10:54:49;;;;;;;4.35;2.63;;;;;;;24.29;44.83;99723.38;4998880;28;20445;-94
2022/06/18 10:57:25;;;;;;;6.53;2.45;;;;;;;24.51;44.23;99733.03;4981074;28;20029;-94
2022/06/18 10:59:51;;;;;;;4.35;2.40;;;;;;;24.41;43.92;99729.63;4964758;28;20068;-93
2022/06/18 11:02:35;;;;;;;3.25;2.60;;;;;;;24.61;44.29;99738.00;4963849;28;20026;-92
2022/06/18 11:05:13;;;;;;;5.00;2.17;;;;;;;24.63;43.71;99710.91;4964724;28;20073;-93
2022/06/18 11:07:39;;;;;;;2.63;2.17;;;;;;;24.62;43.95;99720.34;4966517;28;20113;-93
2022/06/18 11:10:07;;;;;;;3.33;2.13;;;;;;;24.64;44.11;99712.53;4980783;28;20119;-93
2022/06/18 11:12:37;;;;;;;6.05;2.28;;;;;;;24.68;44.02;99710.66;4964851;28;20404;-94
2022/06/18 11:15:23;;;;;;;5.22;2.50;;;;;;;24.77;43.60;99727.78;4981076;28;20022;-93
2022/06/18 11:17:49;;;;;;;3.22;2.40;;;;;;;24.61;43.76;99707.72;4996343;28;20026;-92
2022/06/18 11:20:23;;;;;;;4.10;2.10;;;;;;;24.69;42.14;99703.19;4963374;28;20029;-92
2022/06/18 11:23:16;;;;;;;3.65;2.28;;;;;;;24.63;43.52;99730.19;4963702;28;20105;-92
2022/06/18 11:25:50;;;;;;;4.13;2.33;;;;;;;24.43;43.52;99696.25;4992161;28;20034;-92
2022/06/18 11:28:29;;;;;;;6.43;2.72;;;;;;;24.51;43.91;99694.47;4978427;28;20030;-92
2022/06/18 11:30:55;;;;;;;3.90;2.65;;;;;;;24.66;42.62;99698.41;4965182;28;20403;-92
2022/06/18 11:34:01;;;;;;;3.33;2.38;;;;;;;24.62;43.68;99703.03;4979817;28;20026;-91
2022/06/18 11:36:46;;;;;;;5.40;2.00;;;;;;;24.80;41.52;99723.56;4937093;29;20039;-93
2022/06/18 11:39:27;;;;;;;3.33;2.28;;;;;;;24.83;41.68;99706.31;4937321;29;20032;-92
2022/06/18 11:42:00;;;;;;;2.60;2.15;;;;;;;24.73;41.27;99693.84;4921300;29;20042;-93
2022/06/18 11:44:29;;;;;;;3.25;2.10;;;;;;;24.89;40.75;99701.34;4923017;29;20090;-96
2022/06/18 11:47:09;;;;;;;2.58;2.15;;;;;;;24.77;41.53;99703.00;4907232;29;20039;-93
2022/06/18 11:49:43;;;;;;;2.95;1.90;;;;;;;24.63;42.08;99702.66;4921775;29;20050;-92
2022/06/18 11:52:26;;;;;;;2.40;1.92;;;;;;;24.51;41.11;99686.22;4937436;29;20494;-93
2022/06/18 11:55:08;;;;;;;3.30;2.53;;;;;;;24.57;42.29;99696.63;4905986;29;20501;-92
2022/06/18 11:57:38;;;;;;;3.10;2.28;;;;;;;24.81;41.72;99705.84;4936720;28;20040;-91
2022/06/18 12:00:12;;;;;;;3.70;2.05;;;;;;;24.95;41.55;99702.66;4908253;29;20494;-91
2022/06/18 12:02:49;;;;;;;4.35;2.10;;;;;;;25.03;42.10;99704.44;4924961;29;20130;-93